sensor_id;sensor_type;location;lat;lon;timestamp;pressure;altitude;pressure_sealevel;temperature;humidity
41898;BME280;27576;53.366;-1.498;2023-02-16T00:01:25;100528.22;;;6.04;100.00
41898;BME280;27576;53.366;-1.498;2023-02-16T00:03:52;100501.91;;;5.87;100.00
41898;BME280;27576;53.366;-1.498;2023-02-16T00:06:18;100536.66;;;6.00;100.00
41898;BME280;27576;53.366;-1.498;2023-02-16T00:08:46;100526.38;;;6.00;100.00
41898;BME280;27576;53.366;-1.498;2023-02-16T00:11:16;100517.75;;;5.98;100.00
41898;BME280;27576;53.366;-1.498;2023-02-16T00:14:01;100515.97;;;5.97;100.00
41898;BME280;27576;53.366;-1.498;2023-02-16T00:16:27;100519.34;;;5.94;100.00
41898;BME280;27576;53.366;-1.498;2023-02-16T00:18:53;100515.00;;;5.93;100.00
41898;BME280;27576;53.366;-1.498;2023-02-16T00:21:18;100509.63;;;5.87;100.00
41898;BME280;27576;53.366;-1.498;2023-02-16T00:23:44;100500.97;;;5.85;100.00
41898;BME280;27576;53.366;-1.498;2023-02-16T00:26:22;100508.97;;;5.93;100.00
41898;BME280;27576;53.366;-1.498;2023-02-16T00:28:52;100467.84;;;5.67;100.00
41898;BME280;27576;53.366;-1.498;2023-02-16T00:31:22;100482.31;;;5.90;100.00
41898;BME280;27576;53.366;-1.498;2023-02-16T00:33:50;100475.00;;;5.77;100.00
41898;BME280;27576;53.366;-1.498;2023-02-16T00:36:16;100475.22;;;5.83;100.00
41898;BME280;27576;53.366;-1.498;2023-02-16T00:38:41;100484.19;;;5.95;100.00
41898;BME280;27576;53.366;-1.498;2023-02-16T00:41:14;100491.06;;;5.94;100.00
41898;BME280;27576;53.366;-1.498;2023-02-16T00:44:00;100479.88;;;5.94;100.00
41898;BME280;27576;53.366;-1.498;2023-02-16T00:46:26;100449.22;;;5.74;100.00
41898;BME280;27576;53.366;-1.498;2023-02-16T00:48:51;100480.63;;;5.91;100.00
41898;BME280;27576;53.366;-1.498;2023-02-16T00:51:17;100489.38;;;5.96;100.00
41898;BME280;27576;53.366;-1.498;2023-02-16T00:53:42;100454.41;;;5.76;100.00
41898;BME280;27576;53.366;-1.498;2023-02-16T00:56:10;100456.25;;;5.80;100.00
41898;BME280;27576;53.366;-1.498;2023-02-16T00:58:39;100462.63;;;5.91;100.00
41898;BME280;27576;53.366;-1.498;2023-02-16T01:01:12;100467.22;;;6.00;100.00
41898;BME280;27576;53.366;-1.498;2023-02-16T01:03:38;100472.75;;;6.12;100.00
41898;BME280;27576;53.366;-1.498;2023-02-16T01:06:04;100457.50;;;6.18;100.00
41898;BME280;27576;53.366;-1.498;2023-02-16T01:08:48;100444.88;;;6.26;100.00
41898;BME280;27576;53.366;-1.498;2023-02-16T01:11:32;100449.44;;;6.34;100.00
41898;BME280;27576;53.366;-1.498;2023-02-16T01:13:57;100426.38;;;6.37;100.00
41898;BME280;27576;53.366;-1.498;2023-02-16T01:16:26;100447.44;;;6.53;100.00
41898;BME280;27576;53.366;-1.498;2023-02-16T01:18:57;100442.44;;;6.59;100.00
41898;BME280;27576;53.366;-1.498;2023-02-16T01:21:22;100417.09;;;6.44;100.00
41898;BME280;27576;53.366;-1.498;2023-02-16T01:23:48;100441.66;;;6.61;100.00
41898;BME280;27576;53.366;-1.498;2023-02-16T01:26:16;100443.41;;;6.62;100.00
41898;BME280;27576;53.366;-1.498;2023-02-16T01:28:43;100420.72;;;6.49;100.00
41898;BME280;27576;53.366;-1.498;2023-02-16T01:31:09;100413.75;;;6.47;100.00
41898;BME280;27576;53.366;-1.498;2023-02-16T01:33:35;100411.28;;;6.50;100.00
41898;BME280;27576;53.366;-1.498;2023-02-16T01:36:00;100445.22;;;6.67;100.00
41898;BME280;27576;53.366;-1.498;2023-02-16T01:38:27;100440.00;;;6.63;100.00
41898;BME280;27576;53.366;-1.498;2023-02-16T01:41:05;100440.00;;;6.63;100.00
41898;BME280;27576;53.366;-1.498;2023-02-16T01:43:43;100438.22;;;6.61;100.00
41898;BME280;27576;53.366;-1.498;2023-02-16T01:46:14;100395.38;;;6.34;100.00
41898;BME280;27576;53.366;-1.498;2023-02-16T01:48:41;100428.47;;;6.51;100.00
41898;BME280;27576;53.366;-1.498;2023-02-16T01:51:24;100427.69;;;6.53;100.00
41898;BME280;27576;53.366;-1.498;2023-02-16T01:53:55;100419.84;;;6.49;100.00
41898;BME280;27576;53.366;-1.498;2023-02-16T01:56:40;100409.44;;;6.46;100.00
41898;BME280;27576;53.366;-1.498;2023-02-16T02:01:54;100424.25;;;6.53;100.00
41898;BME280;27576;53.366;-1.498;2023-02-16T02:07:35;100413.03;;;6.51;100.00
41898;BME280;27576;53.366;-1.498;2023-02-16T02:10:08;100409.53;;;6.49;100.00
41898;BME280;27576;53.366;-1.498;2023-02-16T02:13:04;100404.31;;;6.46;100.00
41898;BME280;27576;53.366;-1.498;2023-02-16T02:15:33;100404.22;;;6.43;100.00
41898;BME280;27576;53.366;-1.498;2023-02-16T02:17:59;100405.88;;;6.41;100.00
41898;BME280;27576;53.366;-1.498;2023-02-16T02:31:32;100378.88;;;6.28;100.00
41898;BME280;27576;53.366;-1.498;2023-02-16T02:34:37;100369.41;;;6.25;100.00
41898;BME280;27576;53.366;-1.498;2023-02-16T02:37:30;100371.03;;;6.23;100.00
41898;BME280;27576;53.366;-1.498;2023-02-16T02:42:54;100349.56;;;6.21;100.00
41898;BME280;27576;53.366;-1.498;2023-02-16T02:45:33;100353.00;;;6.22;100.00
41898;BME280;27576;53.366;-1.498;2023-02-16T02:47:59;100324.97;;;6.02;100.00
41898;BME280;27576;53.366;-1.498;2023-02-16T02:50:41;100351.22;;;6.21;100.00
41898;BME280;27576;53.366;-1.498;2023-02-16T02:53:29;100358.13;;;6.22;100.00
41898;BME280;27576;53.366;-1.498;2023-02-16T02:55:57;100352.16;;;6.23;100.00
41898;BME280;27576;53.366;-1.498;2023-02-16T02:58:42;100335.78;;;6.21;100.00
41898;BME280;27576;53.366;-1.498;2023-02-16T03:01:29;100325.19;;;6.10;100.00
41898;BME280;27576;53.366;-1.498;2023-02-16T03:03:55;100346.25;;;6.25;100.00
41898;BME280;27576;53.366;-1.498;2023-02-16T03:06:29;100322.69;;;6.13;100.00
41898;BME280;27576;53.366;-1.498;2023-02-16T03:09:02;100320.31;;;6.19;100.00
41898;BME280;27576;53.366;-1.498;2023-02-16T03:11:29;100314.25;;;6.17;100.00
41898;BME280;27576;53.366;-1.498;2023-02-16T03:14:20;100329.13;;;6.27;100.00
41898;BME280;27576;53.366;-1.498;2023-02-16T03:16:50;100293.50;;;6.11;100.00
41898;BME280;27576;53.366;-1.498;2023-02-16T03:19:37;100325.69;;;6.27;100.00
41898;BME280;27576;53.366;-1.498;2023-02-16T03:22:23;100309.28;;;6.23;100.00
41898;BME280;27576;53.366;-1.498;2023-02-16T03:25:07;100277.00;;;6.04;100.00
41898;BME280;27576;53.366;-1.498;2023-02-16T03:27:52;100282.22;;;6.06;100.00
41898;BME280;27576;53.366;-1.498;2023-02-16T03:30:38;100304.13;;;6.23;100.00
41898;BME280;27576;53.366;-1.498;2023-02-16T03:33:03;100293.75;;;6.20;100.00
41898;BME280;27576;53.366;-1.498;2023-02-16T03:35:29;100252.00;;;5.99;100.00
41898;BME280;27576;53.366;-1.498;2023-02-16T03:37:55;100262.41;;;6.03;100.00
41898;BME280;27576;53.366;-1.498;2023-02-16T03:40:20;100260.66;;;6.02;100.00
41898;BME280;27576;53.366;-1.498;2023-02-16T03:42:54;100236.28;;;5.89;100.00
41898;BME280;27576;53.366;-1.498;2023-02-16T03:45:20;100275.75;;;6.20;100.00
41898;BME280;27576;53.366;-1.498;2023-02-16T03:47:46;100258.31;;;6.10;100.00
41898;BME280;27576;53.366;-1.498;2023-02-16T03:50:12;100274.84;;;6.18;100.00
41898;BME280;27576;53.366;-1.498;2023-02-16T03:52:37;100278.97;;;6.13;100.00
41898;BME280;27576;53.366;-1.498;2023-02-16T03:55:03;100254.47;;;5.96;100.00
41898;BME280;27576;53.366;-1.498;2023-02-16T03:57:28;100272.56;;;5.99;100.00
41898;BME280;27576;53.366;-1.498;2023-02-16T03:59:53;100262.94;;;5.93;100.00
41898;BME280;27576;53.366;-1.498;2023-02-16T04:02:19;100272.50;;;5.97;100.00
41898;BME280;27576;53.366;-1.498;2023-02-16T04:04:45;100237.66;;;5.78;100.00
41898;BME280;27576;53.366;-1.498;2023-02-16T04:07:10;100270.72;;;5.95;100.00
41898;BME280;27576;53.366;-1.498;2023-02-16T04:09:36;100246.47;;;5.86;100.00
41898;BME280;27576;53.366;-1.498;2023-02-16T04:12:01;100248.41;;;5.94;100.00
41898;BME280;27576;53.366;-1.498;2023-02-16T04:14:45;100237.72;;;5.81;100.00
41898;BME280;27576;53.366;-1.498;2023-02-16T04:17:11;100226.50;;;5.78;100.00
41898;BME280;27576;53.366;-1.498;2023-02-16T04:19:36;100241.31;;;5.86;100.00
41898;BME280;27576;53.366;-1.498;2023-02-16T04:22:01;100248.09;;;5.84;100.00
41898;BME280;27576;53.366;-1.498;2023-02-16T04:24:27;100211.41;;;5.60;100.00
41898;BME280;27576;53.366;-1.498;2023-02-16T04:26:52;100250.66;;;5.84;100.00
41898;BME280;27576;53.366;-1.498;2023-02-16T04:29:17;100219.47;;;5.72;100.00
41898;BME280;27576;53.366;-1.498;2023-02-16T04:31:43;100207.44;;;5.71;100.00
41898;BME280;27576;53.366;-1.498;2023-02-16T04:34:08;100194.34;;;5.62;100.00
41898;BME280;27576;53.366;-1.498;2023-02-16T04:36:33;100197.69;;;5.59;100.00
41898;BME280;27576;53.366;-1.498;2023-02-16T04:38:59;100219.59;;;5.77;100.00
41898;BME280;27576;53.366;-1.498;2023-02-16T04:41:24;100221.25;;;5.75;100.00
41898;BME280;27576;53.366;-1.498;2023-02-16T04:43:51;100189.84;;;5.55;100.00
41898;BME280;27576;53.366;-1.498;2023-02-16T04:46:16;100185.56;;;5.55;100.00
41898;BME280;27576;53.366;-1.498;2023-02-16T04:48:43;100170.69;;;5.45;100.00
41898;BME280;27576;53.366;-1.498;2023-02-16T04:51:09;100219.31;;;5.66;100.00
41898;BME280;27576;53.366;-1.498;2023-02-16T04:53:34;100206.34;;;5.63;100.00
41898;BME280;27576;53.366;-1.498;2023-02-16T04:56:00;100215.81;;;5.64;100.00
41898;BME280;27576;53.366;-1.498;2023-02-16T04:58:25;100200.97;;;5.55;100.00
41898;BME280;27576;53.366;-1.498;2023-02-16T05:00:50;100214.91;;;5.62;100.00
41898;BME280;27576;53.366;-1.498;2023-02-16T05:03:16;100196.69;;;5.54;100.00
41898;BME280;27576;53.366;-1.498;2023-02-16T05:05:41;100212.25;;;5.60;100.00
41898;BME280;27576;53.366;-1.498;2023-02-16T05:08:06;100176.63;;;5.43;100.00
41898;BME280;27576;53.366;-1.498;2023-02-16T05:10:32;100208.78;;;5.58;100.00
41898;BME280;27576;53.366;-1.498;2023-02-16T05:12:58;100186.94;;;5.44;100.00
41898;BME280;27576;53.366;-1.498;2023-02-16T05:15:42;100174.81;;;5.40;100.00
41898;BME280;27576;53.366;-1.498;2023-02-16T05:18:07;100147.81;;;5.24;100.00
41898;BME280;27576;53.366;-1.498;2023-02-16T05:20:32;100182.66;;;5.45;100.00
41898;BME280;27576;53.366;-1.498;2023-02-16T05:23:21;100164.41;;;5.35;100.00
41898;BME280;27576;53.366;-1.498;2023-02-16T05:25:46;100152.25;;;5.30;100.00
41898;BME280;27576;53.366;-1.498;2023-02-16T05:28:12;100174.84;;;5.41;100.00
41898;BME280;27576;53.366;-1.498;2023-02-16T05:30:37;100171.41;;;5.39;100.00
41898;BME280;27576;53.366;-1.498;2023-02-16T05:33:03;100166.06;;;5.33;100.00
41898;BME280;27576;53.366;-1.498;2023-02-16T05:35:28;100164.41;;;5.35;100.00
41898;BME280;27576;53.366;-1.498;2023-02-16T05:37:53;100152.00;;;5.22;100.00
41898;BME280;27576;53.366;-1.498;2023-02-16T05:40:19;100149.59;;;5.27;100.00
41898;BME280;27576;53.366;-1.498;2023-02-16T05:42:44;100131.34;;;5.17;100.00
41898;BME280;27576;53.366;-1.498;2023-02-16T05:45:09;100150.59;;;5.32;100.00
41898;BME280;27576;53.366;-1.498;2023-02-16T05:47:35;100075.59;;;4.86;100.00
41898;BME280;27576;53.366;-1.498;2023-02-16T05:50:00;100155.69;;;5.30;100.00
41898;BME280;27576;53.366;-1.498;2023-02-16T05:52:25;100112.25;;;5.09;100.00
41898;BME280;27576;53.366;-1.498;2023-02-16T05:54:51;100112.34;;;5.12;100.00
41898;BME280;27576;53.366;-1.498;2023-02-16T05:57:16;100141.75;;;5.22;100.00
41898;BME280;27576;53.366;-1.498;2023-02-16T05:59:41;100141.09;;;5.29;100.00
41898;BME280;27576;53.366;-1.498;2023-02-16T06:02:07;100156.81;;;5.38;100.00
41898;BME280;27576;53.366;-1.498;2023-02-16T06:04:34;100155.91;;;5.38;100.00
41898;BME280;27576;53.366;-1.498;2023-02-16T06:07:00;100130.66;;;5.23;100.00
41898;BME280;27576;53.366;-1.498;2023-02-16T06:09:25;100153.41;;;5.39;100.00
41898;BME280;27576;53.366;-1.498;2023-02-16T06:11:51;100124.84;;;5.30;100.00
41898;BME280;27576;53.366;-1.498;2023-02-16T06:14:18;100147.53;;;5.44;100.00
41898;BME280;27576;53.366;-1.498;2023-02-16T06:16:46;100143.16;;;5.41;100.00
41898;BME280;27576;53.366;-1.498;2023-02-16T06:19:14;100151.00;;;5.46;100.00
41898;BME280;27576;53.366;-1.498;2023-02-16T06:21:40;100126.66;;;5.33;100.00
41898;BME280;27576;53.366;-1.498;2023-02-16T06:24:06;100151.94;;;5.48;100.00
41898;BME280;27576;53.366;-1.498;2023-02-16T06:26:32;100149.38;;;5.49;100.00
41898;BME280;27576;53.366;-1.498;2023-02-16T06:28:57;100153.72;;;5.50;100.00
41898;BME280;27576;53.366;-1.498;2023-02-16T06:31:23;100152.06;;;5.52;100.00
41898;BME280;27576;53.366;-1.498;2023-02-16T06:33:49;100144.31;;;5.51;100.00
41898;BME280;27576;53.366;-1.498;2023-02-16T06:36:15;100112.16;;;5.35;100.00
41898;BME280;27576;53.366;-1.498;2023-02-16T06:38:40;100141.81;;;5.54;100.00
41898;BME280;27576;53.366;-1.498;2023-02-16T06:41:06;100146.16;;;5.55;100.00
41898;BME280;27576;53.366;-1.498;2023-02-16T06:43:32;100139.19;;;5.51;100.00
41898;BME280;27576;53.366;-1.498;2023-02-16T06:45:57;100153.97;;;5.59;100.00
41898;BME280;27576;53.366;-1.498;2023-02-16T06:48:23;100118.44;;;5.45;100.00
41898;BME280;27576;53.366;-1.498;2023-02-16T06:50:48;100149.72;;;5.60;100.00
41898;BME280;27576;53.366;-1.498;2023-02-16T06:53:14;100152.28;;;5.60;100.00
41898;BME280;27576;53.366;-1.498;2023-02-16T06:55:39;100134.81;;;5.48;100.00
41898;BME280;27576;53.366;-1.498;2023-02-16T06:58:05;100154.84;;;5.60;100.00
41898;BME280;27576;53.366;-1.498;2023-02-16T07:00:32;100146.94;;;5.54;100.00
41898;BME280;27576;53.366;-1.498;2023-02-16T07:02:57;100154.06;;;5.62;100.00
41898;BME280;27576;53.366;-1.498;2023-02-16T07:05:23;100131.38;;;5.48;100.00
41898;BME280;27576;53.366;-1.498;2023-02-16T07:07:49;100138.44;;;5.55;100.00
41898;BME280;27576;53.366;-1.498;2023-02-16T07:10:14;100146.31;;;5.61;100.00
41898;BME280;27576;53.366;-1.498;2023-02-16T07:12:40;100150.63;;;5.62;100.00
41898;BME280;27576;53.366;-1.498;2023-02-16T07:15:06;100126.13;;;5.45;100.00
41898;BME280;27576;53.366;-1.498;2023-02-16T07:17:31;100145.50;;;5.62;100.00
41898;BME280;27576;53.366;-1.498;2023-02-16T07:19:57;100115.81;;;5.43;100.00
41898;BME280;27576;53.366;-1.498;2023-02-16T07:22:22;100116.69;;;5.44;100.00
41898;BME280;27576;53.366;-1.498;2023-02-16T07:24:47;100129.75;;;5.51;100.00
41898;BME280;27576;53.366;-1.498;2023-02-16T07:27:13;100135.28;;;5.65;100.00
41898;BME280;27576;53.366;-1.498;2023-02-16T07:29:38;100132.72;;;5.65;100.00
41898;BME280;27576;53.366;-1.498;2023-02-16T07:32:04;100107.28;;;5.44;100.00
41898;BME280;27576;53.366;-1.498;2023-02-16T07:34:29;100137.94;;;5.68;100.00
41898;BME280;27576;53.366;-1.498;2023-02-16T07:36:55;100119.63;;;5.57;100.00
41898;BME280;27576;53.366;-1.498;2023-02-16T07:39:20;100132.91;;;5.71;100.00
41898;BME280;27576;53.366;-1.498;2023-02-16T07:41:46;100111.91;;;5.56;100.00
41898;BME280;27576;53.366;-1.498;2023-02-16T07:44:11;100077.06;;;5.35;100.00
41898;BME280;27576;53.366;-1.498;2023-02-16T07:46:36;100139.88;;;5.77;100.00
41898;BME280;27576;53.366;-1.498;2023-02-16T07:49:02;100096.47;;;5.56;100.00
41898;BME280;27576;53.366;-1.498;2023-02-16T07:51:29;100146.84;;;5.81;100.00
41898;BME280;27576;53.366;-1.498;2023-02-16T07:53:56;100138.34;;;5.82;100.00
41898;BME280;27576;53.366;-1.498;2023-02-16T07:56:24;100145.34;;;5.87;100.00
41898;BME280;27576;53.366;-1.498;2023-02-16T07:58:51;100150.56;;;5.90;100.00
41898;BME280;27576;53.366;-1.498;2023-02-16T08:01:17;100145.34;;;5.87;100.00
41898;BME280;27576;53.366;-1.498;2023-02-16T08:03:42;100136.88;;;5.91;100.00
41898;BME280;27576;53.366;-1.498;2023-02-16T08:06:08;100129.81;;;5.84;100.00
41898;BME280;27576;53.366;-1.498;2023-02-16T08:08:34;100134.47;;;5.96;100.00
41898;BME280;27576;53.366;-1.498;2023-02-16T08:10:59;100104.19;;;5.87;100.00
41898;BME280;27576;53.366;-1.498;2023-02-16T08:13:34;100127.75;;;6.01;100.00
41898;BME280;27576;53.366;-1.498;2023-02-16T08:15:59;100117.41;;;6.00;100.00
41898;BME280;27576;53.366;-1.498;2023-02-16T08:18:25;100144.41;;;6.15;100.00
41898;BME280;27576;53.366;-1.498;2023-02-16T08:20:50;100140.19;;;6.18;100.00
41898;BME280;27576;53.366;-1.498;2023-02-16T08:23:15;100101.09;;;5.98;100.00
41898;BME280;27576;53.366;-1.498;2023-02-16T08:25:41;100124.47;;;6.07;100.00
41898;BME280;27576;53.366;-1.498;2023-02-16T08:28:06;100120.56;;;6.21;100.00
41898;BME280;27576;53.366;-1.498;2023-02-16T08:30:32;100112.09;;;6.25;100.00
41898;BME280;27576;53.366;-1.498;2023-02-16T08:32:59;100134.53;;;6.32;100.00
41898;BME280;27576;53.366;-1.498;2023-02-16T08:35:27;100122.50;;;6.30;100.00
41898;BME280;27576;53.366;-1.498;2023-02-16T08:37:55;100122.69;;;6.37;100.00
41898;BME280;27576;53.366;-1.498;2023-02-16T08:40:20;100134.88;;;6.45;100.00
41898;BME280;27576;53.366;-1.498;2023-02-16T08:42:49;100132.13;;;6.37;100.00
41898;BME280;27576;53.366;-1.498;2023-02-16T08:45:14;100167.03;;;6.60;100.00
41898;BME280;27576;53.366;-1.498;2023-02-16T08:47:40;100148.94;;;6.59;100.00
41898;BME280;27576;53.366;-1.498;2023-02-16T08:50:05;100123.13;;;6.56;100.00
41898;BME280;27576;53.366;-1.498;2023-02-16T08:52:32;100105.16;;;6.57;100.00
41898;BME280;27576;53.366;-1.498;2023-02-16T08:54:57;100151.41;;;6.91;100.00
41898;BME280;27576;53.366;-1.498;2023-02-16T08:57:22;100159.38;;;7.00;100.00
41898;BME280;27576;53.366;-1.498;2023-02-16T08:59:48;100155.03;;;6.99;100.00
41898;BME280;27576;53.366;-1.498;2023-02-16T09:02:33;100145.84;;;7.08;100.00
41898;BME280;27576;53.366;-1.498;2023-02-16T09:04:59;100120.75;;;7.01;100.00
41898;BME280;27576;53.366;-1.498;2023-02-16T09:07:24;100151.34;;;7.24;100.00
41898;BME280;27576;53.366;-1.498;2023-02-16T09:09:50;100131.44;;;7.18;100.00
41898;BME280;27576;53.366;-1.498;2023-02-16T09:12:17;100124.28;;;7.05;100.00
41898;BME280;27576;53.366;-1.498;2023-02-16T09:14:42;100152.28;;;7.27;100.00
41898;BME280;27576;53.366;-1.498;2023-02-16T09:17:07;100143.63;;;7.25;100.00
41898;BME280;27576;53.366;-1.498;2023-02-16T09:19:33;100149.78;;;7.32;100.00
41898;BME280;27576;53.366;-1.498;2023-02-16T09:21:59;100164.44;;;7.34;100.00
41898;BME280;27576;53.366;-1.498;2023-02-16T09:24:25;100166.19;;;7.35;100.00
41898;BME280;27576;53.366;-1.498;2023-02-16T09:26:51;100155.91;;;7.38;100.00
41898;BME280;27576;53.366;-1.498;2023-02-16T09:29:16;100133.41;;;7.30;100.00
41898;BME280;27576;53.366;-1.498;2023-02-16T09:31:42;100119.56;;;7.25;100.00
41898;BME280;27576;53.366;-1.498;2023-02-16T09:36:37;100150.84;;;7.42;100.00
41898;BME280;27576;53.366;-1.498;2023-02-16T09:39:02;100164.84;;;7.54;100.00
41898;BME280;27576;53.366;-1.498;2023-02-16T09:41:45;100163.34;;;7.62;100.00
41898;BME280;27576;53.366;-1.498;2023-02-16T09:46:57;100132.31;;;7.59;100.00
41898;BME280;27576;53.366;-1.498;2023-02-16T09:49:35;100147.09;;;7.68;100.00
41898;BME280;27576;53.366;-1.498;2023-02-16T09:52:34;100162.81;;;7.80;100.00
41898;BME280;27576;53.366;-1.498;2023-02-16T09:55:04;100162.03;;;7.84;100.00
41898;BME280;27576;53.366;-1.498;2023-02-16T10:02:52;100165.63;;;7.93;100.00
41898;BME280;27576;53.366;-1.498;2023-02-16T10:05:28;100170.03;;;7.97;100.00
41898;BME280;27576;53.366;-1.498;2023-02-16T10:08:04;100165.00;;;8.03;100.00
41898;BME280;27576;53.366;-1.498;2023-02-16T10:10:48;100157.41;;;8.12;100.00
41898;BME280;27576;53.366;-1.498;2023-02-16T10:13:21;100149.72;;;8.15;100.00
41898;BME280;27576;53.366;-1.498;2023-02-16T10:15:51;100082.06;;;7.83;100.00
41898;BME280;27576;53.366;-1.498;2023-02-16T10:18:29;100157.81;;;8.33;100.00
41898;BME280;27576;53.366;-1.498;2023-02-16T10:21:00;100154.50;;;8.39;100.00
41898;BME280;27576;53.366;-1.498;2023-02-16T10:23:45;100158.88;;;8.45;100.00
41898;BME280;27576;53.366;-1.498;2023-02-16T10:33:57;100155.63;;;8.53;100.00
41898;BME280;27576;53.366;-1.498;2023-02-16T10:36:42;100155.63;;;8.55;100.00
41898;BME280;27576;53.366;-1.498;2023-02-16T10:44:58;100146.28;;;8.62;100.00
41898;BME280;27576;53.366;-1.498;2023-02-16T10:47:34;100129.06;;;8.64;100.00
41898;BME280;27576;53.366;-1.498;2023-02-16T10:50:01;100141.44;;;8.81;100.00
41898;BME280;27576;53.366;-1.498;2023-02-16T10:52:31;100142.47;;;8.93;100.00
41898;BME280;27576;53.366;-1.498;2023-02-16T10:54:58;100138.22;;;8.96;100.00
41898;BME280;27576;53.366;-1.498;2023-02-16T10:57:29;100120.94;;;8.94;100.00
41898;BME280;27576;53.366;-1.498;2023-02-16T10:59:58;100141.75;;;9.03;100.00
41898;BME280;27576;53.366;-1.498;2023-02-16T11:02:34;100123.53;;;8.94;100.00
41898;BME280;27576;53.366;-1.498;2023-02-16T11:05:00;100103.47;;;8.79;100.00
41898;BME280;27576;53.366;-1.498;2023-02-16T11:07:29;100139.09;;;8.97;100.00
41898;BME280;27576;53.366;-1.498;2023-02-16T11:09:57;100140.88;;;9.01;100.00
41898;BME280;27576;53.366;-1.498;2023-02-16T11:12:37;100138.41;;;9.10;100.00
41898;BME280;27576;53.366;-1.498;2023-02-16T11:17:46;100145.41;;;9.16;100.00
41898;BME280;27576;53.366;-1.498;2023-02-16T11:22:59;100135.13;;;9.23;100.00
41898;BME280;27576;53.366;-1.498;2023-02-16T11:25:36;100136.84;;;9.20;100.00
41898;BME280;27576;53.366;-1.498;2023-02-16T11:28:02;100121.16;;;9.09;100.00
41898;BME280;27576;53.366;-1.498;2023-02-16T11:30:35;100148.97;;;9.24;100.00
41898;BME280;27576;53.366;-1.498;2023-02-16T11:33:03;100148.88;;;9.19;100.00
41898;BME280;27576;53.366;-1.498;2023-02-16T11:35:32;100164.50;;;9.27;100.00
41898;BME280;27576;53.366;-1.498;2023-02-16T11:38:05;100129.84;;;9.14;100.00
41898;BME280;27576;53.366;-1.498;2023-02-16T11:40:32;100136.03;;;9.24;100.00
41898;BME280;27576;53.366;-1.498;2023-02-16T11:42:59;100137.81;;;9.28;100.00
41898;BME280;27576;53.366;-1.498;2023-02-16T11:45:34;100162.88;;;9.33;100.00
41898;BME280;27576;53.366;-1.498;2023-02-16T11:48:05;100172.41;;;9.38;100.00
41898;BME280;27576;53.366;-1.498;2023-02-16T11:50:35;100162.91;;;9.37;100.00
41898;BME280;27576;53.366;-1.498;2023-02-16T11:55:35;100156.03;;;9.39;100.00
41898;BME280;27576;53.366;-1.498;2023-02-16T12:01:17;100186.44;;;9.55;100.00
41898;BME280;27576;53.366;-1.498;2023-02-16T12:04:04;100162.16;;;9.45;100.00
41898;BME280;27576;53.366;-1.498;2023-02-16T12:09:48;100169.38;;;9.69;100.00
41898;BME280;27576;53.366;-1.498;2023-02-16T12:18:00;100162.59;;;9.79;100.00
41898;BME280;27576;53.366;-1.498;2023-02-16T12:23:27;100134.97;;;9.78;100.00
41898;BME280;27576;53.366;-1.498;2023-02-16T12:35:20;100123.97;;;9.94;100.00
41898;BME280;27576;53.366;-1.498;2023-02-16T12:43:49;100147.63;;;10.29;100.00
41898;BME280;27576;53.366;-1.498;2023-02-16T12:46:21;100133.84;;;10.30;100.00
41898;BME280;27576;53.366;-1.498;2023-02-16T12:48:54;100143.47;;;10.44;100.00
41898;BME280;27576;53.366;-1.498;2023-02-16T12:51:27;100147.81;;;10.48;100.00
41898;BME280;27576;53.366;-1.498;2023-02-16T12:54:37;100140.94;;;10.50;100.00
41898;BME280;27576;53.366;-1.498;2023-02-16T12:57:13;100121.81;;;10.36;100.00
41898;BME280;27576;53.366;-1.498;2023-02-16T12:59:50;100150.41;;;10.48;100.00
41898;BME280;27576;53.366;-1.498;2023-02-16T13:02:30;100139.09;;;10.41;100.00
41898;BME280;27576;53.366;-1.498;2023-02-16T13:07:34;100134.84;;;10.48;100.00
41898;BME280;27576;53.366;-1.498;2023-02-16T13:10:30;100127.97;;;10.53;100.00
41898;BME280;27576;53.366;-1.498;2023-02-16T13:13:14;100127.16;;;10.54;100.00
41898;BME280;27576;53.366;-1.498;2023-02-16T13:15:45;100119.28;;;10.45;100.00
41898;BME280;27576;53.366;-1.498;2023-02-16T13:18:19;100142.72;;;10.59;100.00
41898;BME280;27576;53.366;-1.498;2023-02-16T13:20:52;100104.56;;;10.39;100.00
41898;BME280;27576;53.366;-1.498;2023-02-16T13:31:40;100131.53;;;10.61;100.00
41898;BME280;27576;53.366;-1.498;2023-02-16T13:39:40;100119.50;;;10.71;100.00
41898;BME280;27576;53.366;-1.498;2023-02-16T13:45:02;100136.97;;;10.98;100.00
41898;BME280;27576;53.366;-1.498;2023-02-16T13:47:32;100104.06;;;10.85;100.00
41898;BME280;27576;53.366;-1.498;2023-02-16T13:50:01;100151.78;;;11.14;100.00
41898;BME280;27576;53.366;-1.498;2023-02-16T13:52:46;100143.16;;;11.20;100.00
41898;BME280;27576;53.366;-1.498;2023-02-16T13:55:30;100152.66;;;11.19;100.00
41898;BME280;27576;53.366;-1.498;2023-02-16T13:58:25;100157.00;;;11.19;100.00
41898;BME280;27576;53.366;-1.498;2023-02-16T14:00:51;100120.63;;;11.06;100.00
41898;BME280;27576;53.366;-1.498;2023-02-16T14:05:53;100100.69;;;10.98;100.00
41898;BME280;27576;53.366;-1.498;2023-02-16T14:08:20;100114.59;;;11.09;100.00
41898;BME280;27576;53.366;-1.498;2023-02-16T14:18:47;100118.91;;;11.12;100.00
41898;BME280;27576;53.366;-1.498;2023-02-16T14:24:02;100105.88;;;11.04;100.00
41898;BME280;27576;53.366;-1.498;2023-02-16T14:26:30;100107.66;;;11.05;100.00
41898;BME280;27576;53.366;-1.498;2023-02-16T14:29:09;100136.28;;;11.20;100.00
41898;BME280;27576;53.366;-1.498;2023-02-16T14:31:49;100131.06;;;11.17;100.00
41898;BME280;27576;53.366;-1.498;2023-02-16T14:34:26;100148.41;;;11.24;100.00
41898;BME280;27576;53.366;-1.498;2023-02-16T14:39:33;100117.22;;;11.12;100.00
41898;BME280;27576;53.366;-1.498;2023-02-16T14:42:13;100118.94;;;11.19;100.00
41898;BME280;27576;53.366;-1.498;2023-02-16T14:50:25;100092.13;;;11.10;100.00
41898;BME280;27576;53.366;-1.498;2023-02-16T14:59:11;100097.28;;;11.11;100.00
41898;BME280;27576;53.366;-1.498;2023-02-16T15:01:42;100093.88;;;11.18;100.00